Saugus, MA

8:35 PM EDT on March 26, 2015 (GMT -0400)
East Milton | | Change Station
CLOSE
Current Station
Airport
Location: East Milton,
Elevation: 630 ft
Nearby Weather Stations
Active Advisory: Special Statement

Elev 630 ft 42.21 °N, 71.11 °W | Updated 41 minutes ago

Rain
Rain
53 °F
Feels Like 53 °F
N
14
Wind Variable Wind from SW
Gusts 23 mph

Today
High -- | Low -- °F
--% Chance of Precip.
Yesterday
High -- | Low -- °F
Precip. -- in
6:37 AM 7:02 PM
Waxing Crescent, 47% visible
Pressure 29.65 in
Visibility -9999.0 miles
Clouds
Dew Point 53 °F
Humidity 100%
Rainfall 0.42 in
Snow Depth Not available.
UV Not available.
Pollen 3.50 out of 12
Air Quality Not available.
Flu Activity Not available.
METAR KMQE 262354Z AUTO 23012G20KT 12/12 A2962 RMK AO1 SLP041 P0009 60042 T01170117 10117 20078 56009

More Conditions Fewer Conditions

Pressure 29.65 in
Visibility -9999.0 miles
Clouds
Dew Point 53 °F
Humidity 100%
Rainfall 0.42 in
Snow Depth Not available.
UV Not available.
Pollen 3.50 out of 12
Air Quality Not available.
Flu Activity Not available.
METAR KMQE 262354Z AUTO 23012G20KT 12/12 A2962 RMK AO1 SLP041 P0009 60042 T01170117 10117 20078 56009

More Conditions Fewer Conditions

10-Day Weather Forecast

Almanac

Astronomy

Mar. 26, 2015 Rise Set
Actual Time
Civil Twilight
Nautical Twilight
Astronomical Twilight
Moon
Length of Visible Light
Length of Day
Tomorrow will be .
, % of the Moon is Illuminated

Today's Extremes

State Highs State Lows

Community

WunderPhotos

Upload Photos

1,808,654 photos uploaded!

WunderBlogs® & News

Nearby

Air Quality

  Air Quality AQ Index Pollutant
Not available.

Snow Depth

Station Depth Elevation

Earthquake Activity

City Distance Mag. Time & Date
Minimum magnitude displayed is 2.5.

Coastal Water Temperatures

Place Temperature

Stations

Nearby Weather Stations

Station Location Temp. Windchill Dew Point Humidity Wind Precip. Elev Updated Type
                   
Special Statement
Statement as of 8:17 PM EDT on March 26, 2015

... Poor visibility in fog continues through the first part of the
night...

Mild humid air over a lingering snowpack will continue to generate
areas of poor visibility in fog tonight. The visibility will be
less than one mile in some places and one to three miles most
other places.

If traveling... you should drive at a reduced speed and allow
extra time to reach your destination. Familiar landmarks
will... in some places... be difficult to see unless you are close
to them.


Wtb